createdAt,value
2023-11-30T00:02:12.061Z,4.89
2023-11-30T00:04:44.303Z,4.76
2023-11-30T00:07:16.426Z,4.91
2023-11-30T00:09:48.549Z,4.91
2023-11-30T00:12:20.615Z,4.89
2023-11-30T00:14:52.854Z,4.71
2023-11-30T00:17:24.922Z,4.73
2023-11-30T00:19:56.953Z,4.89
2023-11-30T00:22:28.962Z,4.90
2023-11-30T00:25:01.066Z,4.88
2023-11-30T00:27:33.132Z,4.91
2023-11-30T00:30:07.747Z,4.92
2023-11-30T00:32:40.042Z,4.92
2023-11-30T00:35:12.284Z,4.92
2023-11-30T00:37:44.462Z,4.93
2023-11-30T00:40:16.597Z,4.94
2023-11-30T00:42:48.732Z,4.96
2023-11-30T00:45:20.960Z,4.80
2023-11-30T00:47:53.055Z,4.95
2023-11-30T00:50:25.512Z,4.97
2023-11-30T00:52:57.758Z,4.81
2023-11-30T00:55:29.973Z,4.96
2023-11-30T00:58:02.088Z,4.85
2023-11-30T01:00:34.125Z,4.94
2023-11-30T01:03:06.361Z,4.98
2023-11-30T01:05:38.895Z,4.98
2023-11-30T01:08:13.812Z,5.00
2023-11-30T01:10:45.862Z,4.99
2023-11-30T01:13:17.921Z,5.01
2023-11-30T01:15:49.941Z,5.02
2023-11-30T01:18:22.108Z,5.02
2023-11-30T01:20:54.276Z,5.02
2023-11-30T01:23:26.325Z,4.99
2023-11-30T01:25:58.509Z,5.01
2023-11-30T01:28:30.682Z,4.95
2023-11-30T01:31:03.189Z,4.99
2023-11-30T01:33:37.849Z,4.96
2023-11-30T01:36:10.732Z,4.98
2023-11-30T01:38:42.825Z,4.95
2023-11-30T01:41:14.943Z,4.83
2023-11-30T01:43:47.047Z,4.99
2023-11-30T01:46:20.353Z,4.81
2023-11-30T01:48:52.532Z,4.97
2023-11-30T01:51:26.699Z,4.96
2023-11-30T01:54:01.232Z,4.90
2023-11-30T01:56:38.086Z,4.93
2023-11-30T01:59:13.087Z,4.93
2023-11-30T02:01:46.451Z,4.87
2023-11-30T02:04:18.877Z,4.82
2023-11-30T02:06:51.028Z,4.91
2023-11-30T02:09:23.233Z,4.73
2023-11-30T02:11:55.395Z,4.73
2023-11-30T02:14:27.445Z,4.93
2023-11-30T02:16:59.582Z,4.93
2023-11-30T02:19:31.685Z,4.94
2023-11-30T02:22:03.937Z,4.77
2023-11-30T02:24:36.072Z,4.80
2023-11-30T02:27:08.302Z,4.88
2023-11-30T02:29:40.456Z,4.86
2023-11-30T02:32:13.535Z,4.85
2023-11-30T02:34:45.818Z,4.88
2023-11-30T02:37:18.112Z,4.80
2023-11-30T02:39:50.482Z,4.83
2023-11-30T02:42:22.597Z,4.82
2023-11-30T02:44:54.965Z,4.80
2023-11-30T02:47:27.139Z,4.79
2023-11-30T02:49:59.160Z,4.83
2023-11-30T02:52:31.614Z,4.74
2023-11-30T02:55:04.039Z,4.76
2023-11-30T02:57:37.060Z,4.78
2023-11-30T03:00:10.417Z,4.57
2023-11-30T03:02:42.531Z,4.76
2023-11-30T03:05:14.635Z,4.75
2023-11-30T03:07:46.968Z,4.69
2023-11-30T03:10:22.949Z,4.73
2023-11-30T03:12:56.172Z,4.72
2023-11-30T03:15:31.668Z,4.72
2023-11-30T03:18:04.307Z,4.71
2023-11-30T03:20:37.831Z,4.74
2023-11-30T03:23:10.068Z,4.56
2023-11-30T03:25:42.408Z,4.73
2023-11-30T03:28:14.888Z,4.62
2023-11-30T03:30:46.908Z,4.68
2023-11-30T03:33:19.031Z,4.75
2023-11-30T03:35:52.799Z,4.75
2023-11-30T03:38:25.102Z,4.77
2023-11-30T03:40:57.183Z,4.74
2023-11-30T03:43:29.171Z,4.62
2023-11-30T03:46:01.170Z,4.72
2023-11-30T03:48:33.273Z,4.50
2023-11-30T03:51:05.703Z,4.52
2023-11-30T03:53:38.753Z,4.71
2023-11-30T03:56:11.092Z,4.71
2023-11-30T03:58:43.124Z,4.71
2023-11-30T04:01:24.115Z,4.72
2023-11-30T04:03:56.290Z,4.72
2023-11-30T04:06:28.594Z,4.74
2023-11-30T04:09:00.788Z,4.73
2023-11-30T04:11:32.817Z,4.72
2023-11-30T04:14:07.346Z,4.71
2023-11-30T04:16:39.442Z,4.70
2023-11-30T04:19:11.720Z,4.70
2023-11-30T04:21:43.718Z,4.66
2023-11-30T04:24:17.310Z,4.68
2023-11-30T04:26:49.407Z,4.68
2023-11-30T04:29:21.723Z,4.66
2023-11-30T04:31:53.872Z,4.64
2023-11-30T04:34:25.965Z,4.65
2023-11-30T04:36:58.002Z,4.64
2023-11-30T04:39:30.203Z,4.63
2023-11-30T04:42:02.346Z,4.62
2023-11-30T04:44:34.698Z,4.63
2023-11-30T04:47:07.950Z,4.63
2023-11-30T04:49:40.012Z,4.60
2023-11-30T04:52:12.083Z,4.64
2023-11-30T04:54:44.182Z,4.62
2023-11-30T04:57:16.269Z,4.67
2023-11-30T04:59:48.326Z,4.67
2023-11-30T05:02:21.108Z,4.67
2023-11-30T05:04:53.266Z,4.68
2023-11-30T05:07:25.427Z,4.48
2023-11-30T05:09:57.498Z,4.66
2023-11-30T05:12:29.660Z,4.68
2023-11-30T05:15:01.672Z,4.67
2023-11-30T05:17:34.309Z,4.49
2023-11-30T05:20:07.520Z,4.58
2023-11-30T05:22:39.523Z,4.69
2023-11-30T05:25:11.580Z,4.70
2023-11-30T05:27:43.605Z,4.67
2023-11-30T05:30:15.841Z,4.47
2023-11-30T05:32:48.136Z,4.62
2023-11-30T05:35:20.421Z,4.57
2023-11-30T05:37:52.548Z,4.44
2023-11-30T05:40:26.028Z,4.43
2023-11-30T05:42:58.055Z,4.60
2023-11-30T05:45:30.234Z,4.60
2023-11-30T05:48:02.350Z,4.54
2023-11-30T05:50:36.429Z,4.55
2023-11-30T05:53:08.519Z,4.58
2023-11-30T05:55:40.556Z,4.62
2023-11-30T05:58:12.728Z,4.63
2023-11-30T06:00:44.904Z,4.48
2023-11-30T06:03:17.097Z,4.67
2023-11-30T06:05:49.214Z,4.69
2023-11-30T06:08:21.185Z,4.49
2023-11-30T06:10:53.267Z,4.54
2023-11-30T06:13:27.873Z,4.72
2023-11-30T06:15:59.925Z,4.55
2023-11-30T06:18:32.317Z,4.54
2023-11-30T06:21:09.394Z,4.73
2023-11-30T06:23:41.406Z,4.74
2023-11-30T06:26:13.557Z,4.76
2023-11-30T06:28:45.628Z,4.76
2023-11-30T06:31:18.283Z,4.75
2023-11-30T06:33:51.500Z,4.77
2023-11-30T06:36:25.282Z,4.74
2023-11-30T06:38:58.007Z,4.57
2023-11-30T06:41:30.368Z,4.63
2023-11-30T06:44:02.448Z,4.79
2023-11-30T06:46:34.723Z,4.79
2023-11-30T06:49:06.767Z,4.80
2023-11-30T06:51:39.197Z,4.68
2023-11-30T06:54:11.437Z,4.80
2023-11-30T06:56:43.466Z,4.79
2023-11-30T06:59:15.482Z,4.81
2023-11-30T07:01:47.908Z,4.82
2023-11-30T07:04:20.133Z,4.79
2023-11-30T07:06:52.189Z,4.81
2023-11-30T07:09:24.260Z,4.78
2023-11-30T07:11:56.331Z,4.79
2023-11-30T07:14:28.349Z,4.63
2023-11-30T07:17:00.442Z,4.81
2023-11-30T07:19:32.503Z,4.81
2023-11-30T07:22:04.597Z,4.79
2023-11-30T07:24:36.607Z,4.75
2023-11-30T07:27:09.911Z,4.78
2023-11-30T07:29:41.908Z,4.76
2023-11-30T07:32:19.681Z,4.60
2023-11-30T07:34:51.768Z,4.64
2023-11-30T07:37:23.827Z,4.71
2023-11-30T07:39:55.833Z,4.65
2023-11-30T07:42:32.993Z,4.66
2023-11-30T07:45:10.554Z,4.52
2023-11-30T07:47:42.833Z,4.68
2023-11-30T07:50:17.399Z,4.68
2023-11-30T07:52:49.553Z,4.67
2023-11-30T07:55:21.911Z,4.67
2023-11-30T07:57:53.997Z,4.64
2023-11-30T08:00:26.143Z,4.64
2023-11-30T08:02:58.313Z,4.58
2023-11-30T08:05:30.412Z,4.53
2023-11-30T08:08:02.457Z,4.69
2023-11-30T08:10:35.761Z,4.63
2023-11-30T08:13:08.526Z,4.61
2023-11-30T08:15:40.635Z,4.83
2023-11-30T08:18:15.366Z,4.86
2023-11-30T08:20:47.497Z,4.86
2023-11-30T08:23:21.155Z,4.92
2023-11-30T08:25:53.370Z,4.96
2023-11-30T08:28:25.984Z,4.93
2023-11-30T08:30:58.191Z,4.99
2023-11-30T08:33:30.266Z,4.99
2023-11-30T08:36:03.990Z,4.84
2023-11-30T08:38:39.154Z,5.06
2023-11-30T08:41:11.379Z,5.07
2023-11-30T08:43:43.406Z,5.12
2023-11-30T08:46:15.574Z,5.11
2023-11-30T08:48:47.853Z,5.14
2023-11-30T08:51:20.100Z,5.16
2023-11-30T08:53:52.433Z,5.22
2023-11-30T08:56:24.474Z,5.23
2023-11-30T08:58:56.548Z,5.25
2023-11-30T09:01:28.698Z,5.08
2023-11-30T09:04:07.250Z,5.08
2023-11-30T09:06:39.479Z,5.23
2023-11-30T09:09:11.587Z,5.25
2023-11-30T09:11:46.597Z,5.26
2023-11-30T09:14:19.047Z,5.30
2023-11-30T09:16:51.358Z,5.32
2023-11-30T09:19:23.477Z,5.19
2023-11-30T09:21:55.676Z,5.20
2023-11-30T09:24:27.884Z,5.25
2023-11-30T09:26:59.945Z,5.45
2023-11-30T09:29:32.090Z,5.52
2023-11-30T09:32:04.554Z,5.41
2023-11-30T09:34:36.581Z,5.71
2023-11-30T09:37:08.648Z,5.97
2023-11-30T09:39:42.352Z,6.34
2023-11-30T09:42:17.544Z,6.58
2023-11-30T09:44:49.600Z,6.93
2023-11-30T09:47:22.568Z,7.13
2023-11-30T09:49:55.094Z,7.37
2023-11-30T09:52:27.513Z,7.58
2023-11-30T09:55:00.713Z,7.72
2023-11-30T09:57:33.006Z,7.84
2023-11-30T10:00:11.389Z,7.91
2023-11-30T10:03:00.496Z,7.92
2023-11-30T10:05:32.663Z,8.04
2023-11-30T10:08:05.014Z,8.19
2023-11-30T10:10:37.380Z,8.11
2023-11-30T10:13:10.546Z,8.26
2023-11-30T10:15:42.870Z,8.13
2023-11-30T10:18:15.126Z,8.06
2023-11-30T10:20:47.929Z,8.02
2023-11-30T10:23:19.955Z,7.94
2023-11-30T10:25:54.176Z,7.96
2023-11-30T10:28:26.340Z,7.86
2023-11-30T10:31:04.157Z,7.97
2023-11-30T10:33:39.028Z,8.14
2023-11-30T10:36:13.077Z,8.24
2023-11-30T10:38:52.384Z,8.35
2023-11-30T10:41:37.887Z,8.52
2023-11-30T10:44:14.453Z,8.87
2023-11-30T10:46:51.010Z,8.96
2023-11-30T10:49:25.373Z,8.77
2023-11-30T10:52:03.382Z,8.46
2023-11-30T10:54:58.218Z,8.36
2023-11-30T10:57:30.831Z,8.37
2023-11-30T11:00:03.731Z,8.57
2023-11-30T11:02:42.814Z,8.96
2023-11-30T11:05:19.854Z,9.28
2023-11-30T11:07:53.617Z,9.31
2023-11-30T11:10:36.170Z,8.95
2023-11-30T11:13:08.389Z,8.77
2023-11-30T11:15:41.740Z,8.82
2023-11-30T11:18:17.257Z,8.67
2023-11-30T11:20:49.341Z,8.56
2023-11-30T11:23:21.452Z,8.40
2023-11-30T11:26:00.051Z,8.33
2023-11-30T11:28:32.835Z,8.40
2023-11-30T11:31:05.980Z,8.52
2023-11-30T11:33:42.848Z,8.44
2023-11-30T11:36:15.494Z,8.62
2023-11-30T11:38:47.527Z,8.63
2023-11-30T11:41:20.013Z,8.51
2023-11-30T11:43:52.010Z,8.80
2023-11-30T11:46:24.366Z,8.91
2023-11-30T11:48:56.842Z,9.29
2023-11-30T11:51:29.470Z,9.41
2023-11-30T11:54:01.514Z,9.69
2023-11-30T11:56:33.654Z,9.74
2023-11-30T11:59:05.658Z,9.89
2023-11-30T12:01:40.843Z,9.78
2023-11-30T12:04:13.023Z,9.58
2023-11-30T12:06:45.545Z,9.33
2023-11-30T12:09:17.752Z,9.21
2023-11-30T12:11:49.814Z,9.38
2023-11-30T12:14:22.188Z,9.05
2023-11-30T12:16:54.344Z,8.94
2023-11-30T12:19:26.376Z,8.72
2023-11-30T12:21:59.419Z,8.52
2023-11-30T12:24:31.447Z,8.38
2023-11-30T12:27:03.667Z,8.30
2023-11-30T12:29:36.479Z,8.20
2023-11-30T12:32:08.616Z,8.11
2023-11-30T12:34:40.678Z,7.85
2023-11-30T12:37:12.866Z,7.88
2023-11-30T12:39:44.904Z,7.79
2023-11-30T12:42:17.893Z,7.72
2023-11-30T12:44:49.944Z,7.62
2023-11-30T12:47:22.772Z,7.56
2023-11-30T12:49:54.956Z,7.52
2023-11-30T12:52:28.282Z,7.49
2023-11-30T12:55:00.777Z,7.53
2023-11-30T12:57:36.200Z,7.33
2023-11-30T13:00:15.977Z,7.45
2023-11-30T13:02:49.823Z,7.29
2023-11-30T13:05:22.272Z,7.27
2023-11-30T13:07:56.420Z,7.38
2023-11-30T13:10:29.064Z,7.30
2023-11-30T13:13:01.605Z,7.24
2023-11-30T13:15:33.771Z,7.19
2023-11-30T13:18:05.966Z,7.04
2023-11-30T13:20:38.191Z,7.21
2023-11-30T13:23:10.232Z,7.20
2023-11-30T13:25:43.581Z,7.19
2023-11-30T13:28:15.767Z,7.14
2023-11-30T13:30:48.083Z,7.18
2023-11-30T13:33:20.371Z,7.16
2023-11-30T13:35:53.159Z,7.14
2023-11-30T13:38:25.422Z,7.17
2023-11-30T13:40:57.458Z,7.13
2023-11-30T13:43:29.569Z,7.09
2023-11-30T13:46:01.668Z,7.08
2023-11-30T13:48:33.779Z,7.04
2023-11-30T13:51:06.444Z,7.00
2023-11-30T13:53:39.830Z,7.00
2023-11-30T13:56:12.341Z,7.02
2023-11-30T13:58:44.819Z,7.05
2023-11-30T14:01:18.336Z,7.07
2023-11-30T14:03:52.357Z,7.07
2023-11-30T14:06:24.506Z,7.07
2023-11-30T14:08:56.615Z,7.07
2023-11-30T14:11:28.657Z,7.12
2023-11-30T14:14:00.742Z,7.15
2023-11-30T14:16:33.466Z,7.18
2023-11-30T14:19:05.836Z,7.17
2023-11-30T14:21:38.132Z,7.22
2023-11-30T14:24:11.493Z,7.25
2023-11-30T14:26:43.615Z,7.26
2023-11-30T14:29:15.870Z,7.26
2023-11-30T14:31:48.716Z,7.29
2023-11-30T14:34:21.297Z,7.12
2023-11-30T14:36:53.821Z,7.29
2023-11-30T14:39:29.253Z,7.07
2023-11-30T14:42:01.404Z,7.18
2023-11-30T14:44:33.445Z,7.19
2023-11-30T14:47:11.661Z,7.22
2023-11-30T14:49:43.704Z,7.12
2023-11-30T14:52:17.219Z,7.20
2023-11-30T14:54:53.601Z,7.19
2023-11-30T14:57:25.706Z,7.17
2023-11-30T15:00:01.581Z,7.14
2023-11-30T15:02:34.183Z,7.15
2023-11-30T15:05:10.234Z,7.17
2023-11-30T15:07:42.975Z,7.15
2023-11-30T15:10:15.527Z,7.17
2023-11-30T15:12:49.295Z,7.17
2023-11-30T15:15:21.447Z,7.05
2023-11-30T15:17:53.948Z,7.20
2023-11-30T15:20:26.332Z,6.67
2023-11-30T15:22:58.429Z,7.18
2023-11-30T15:25:30.459Z,7.18
2023-11-30T15:28:02.617Z,7.17
2023-11-30T15:30:35.326Z,7.14
2023-11-30T15:33:09.616Z,7.15
2023-11-30T15:35:41.845Z,7.31
2023-11-30T15:38:13.987Z,7.22
2023-11-30T15:40:46.001Z,7.05
2023-11-30T15:43:18.557Z,7.13
2023-11-30T15:45:50.656Z,7.06
2023-11-30T15:48:22.963Z,7.10
2023-11-30T15:50:55.128Z,7.10
2023-11-30T15:53:27.182Z,7.05
2023-11-30T15:55:59.860Z,6.93
2023-11-30T15:58:32.052Z,6.97
2023-11-30T16:01:04.863Z,6.92
2023-11-30T16:03:37.033Z,7.01
2023-11-30T16:06:12.625Z,6.81
2023-11-30T16:08:44.653Z,6.79
2023-11-30T16:11:17.234Z,6.96
2023-11-30T16:13:49.645Z,6.92
2023-11-30T16:16:21.761Z,6.93
2023-11-30T16:18:54.048Z,6.96
2023-11-30T16:21:28.610Z,7.00
2023-11-30T16:24:00.869Z,6.96
2023-11-30T16:26:34.743Z,6.96
2023-11-30T16:29:07.137Z,7.00
2023-11-30T16:31:39.440Z,6.97
2023-11-30T16:34:11.482Z,6.99
2023-11-30T16:36:45.312Z,6.82
2023-11-30T16:39:17.473Z,7.00
2023-11-30T16:41:49.631Z,7.00
2023-11-30T16:44:21.736Z,7.00
2023-11-30T16:46:53.949Z,6.97
2023-11-30T16:49:26.137Z,7.00
2023-11-30T16:51:59.951Z,7.01
2023-11-30T16:54:33.550Z,7.00
2023-11-30T16:57:05.839Z,6.80
2023-11-30T16:59:38.685Z,6.93
2023-11-30T17:02:10.738Z,6.93
2023-11-30T17:04:44.345Z,6.93
2023-11-30T17:07:16.729Z,6.93
2023-11-30T17:09:49.805Z,6.94
2023-11-30T17:12:22.932Z,6.95
2023-11-30T17:14:55.112Z,6.98
2023-11-30T17:17:27.139Z,6.97
2023-11-30T17:19:59.618Z,6.97
2023-11-30T17:22:31.793Z,6.75
2023-11-30T17:25:05.445Z,6.76
2023-11-30T17:27:37.866Z,6.90
2023-11-30T17:30:10.314Z,6.88
2023-11-30T17:32:42.788Z,6.68
2023-11-30T17:35:15.540Z,6.59
2023-11-30T17:37:47.676Z,6.76
2023-11-30T17:40:20.110Z,6.45
2023-11-30T17:42:52.198Z,6.69
2023-11-30T17:45:24.595Z,6.71
2023-11-30T17:47:57.125Z,6.70
2023-11-30T17:50:29.237Z,6.71
2023-11-30T17:53:04.347Z,6.66
2023-11-30T17:55:37.975Z,6.67
2023-11-30T17:58:10.002Z,6.64
2023-11-30T18:00:42.054Z,6.49
2023-11-30T18:03:14.323Z,6.68
2023-11-30T18:05:46.542Z,6.55
2023-11-30T18:08:18.600Z,6.69
2023-11-30T18:10:51.104Z,6.68
2023-11-30T18:13:23.468Z,6.63
2023-11-30T18:15:56.297Z,6.47
2023-11-30T18:18:28.763Z,6.59
2023-11-30T18:21:00.861Z,6.55
2023-11-30T18:23:33.023Z,6.55
2023-11-30T18:26:05.337Z,6.56
2023-11-30T18:28:37.684Z,6.58
2023-11-30T18:31:16.830Z,6.59
2023-11-30T18:33:54.319Z,6.63
2023-11-30T18:36:27.363Z,6.62
2023-11-30T18:38:59.452Z,6.60
2023-11-30T18:41:31.502Z,6.59
2023-11-30T18:44:05.077Z,6.58
2023-11-30T18:46:37.858Z,6.54
2023-11-30T18:49:09.962Z,6.58
2023-11-30T18:51:42.124Z,6.62
2023-11-30T18:54:14.242Z,6.60
2023-11-30T18:56:46.606Z,6.57
2023-11-30T18:59:18.700Z,6.58
2023-11-30T19:01:50.973Z,6.58
2023-11-30T19:04:23.176Z,6.41
2023-11-30T19:06:55.391Z,6.53
2023-11-30T19:09:27.568Z,6.55
2023-11-30T19:11:59.816Z,6.54
2023-11-30T19:14:31.918Z,6.42
2023-11-30T19:17:04.362Z,6.55
2023-11-30T19:19:36.442Z,6.52
2023-11-30T19:22:08.598Z,6.52
2023-11-30T19:24:41.135Z,6.54
2023-11-30T19:27:13.333Z,6.52
2023-11-30T19:29:45.537Z,6.33
2023-11-30T19:32:17.765Z,6.49
2023-11-30T19:34:49.832Z,6.48
2023-11-30T19:37:21.861Z,6.45
2023-11-30T19:39:54.010Z,6.44
2023-11-30T19:42:26.295Z,6.39
2023-11-30T19:44:58.393Z,6.32
2023-11-30T19:47:30.553Z,6.29
2023-11-30T19:50:03.465Z,6.24
2023-11-30T19:52:39.171Z,6.21
2023-11-30T19:55:11.624Z,6.19
2023-11-30T19:57:43.647Z,6.20
2023-11-30T20:00:16.310Z,6.17
2023-11-30T20:02:48.762Z,6.11
2023-11-30T20:05:22.796Z,6.08
2023-11-30T20:07:54.903Z,6.06
2023-11-30T20:10:27.122Z,6.03
2023-11-30T20:12:59.346Z,6.01
2023-11-30T20:15:31.727Z,5.97
2023-11-30T20:18:05.293Z,5.96
2023-11-30T20:20:37.983Z,5.94
2023-11-30T20:23:10.150Z,5.92
2023-11-30T20:25:42.374Z,5.90
2023-11-30T20:28:14.413Z,5.73
2023-11-30T20:30:46.487Z,5.84
2023-11-30T20:33:18.638Z,5.83
2023-11-30T20:35:50.724Z,5.79
2023-11-30T20:38:23.892Z,5.73
2023-11-30T20:40:55.902Z,5.67
2023-11-30T20:43:27.942Z,5.63
2023-11-30T20:46:00.034Z,5.66
2023-11-30T20:48:32.091Z,5.63
2023-11-30T20:51:04.667Z,5.67
2023-11-30T20:53:36.746Z,5.65
2023-11-30T20:56:09.522Z,5.67
2023-11-30T20:58:44.607Z,5.64
2023-11-30T21:01:18.494Z,5.61
2023-11-30T21:03:50.868Z,5.60
2023-11-30T21:06:23.846Z,5.60
2023-11-30T21:08:55.890Z,5.66
2023-11-30T21:11:27.999Z,5.68
2023-11-30T21:14:00.074Z,5.69
2023-11-30T21:16:32.466Z,5.69
2023-11-30T21:19:04.690Z,5.71
2023-11-30T21:21:36.801Z,5.69
2023-11-30T21:24:09.125Z,5.69
2023-11-30T21:26:41.199Z,5.70
2023-11-30T21:29:13.325Z,5.69
2023-11-30T21:31:45.536Z,5.70
2023-11-30T21:34:17.791Z,5.72
2023-11-30T21:36:49.819Z,5.74
2023-11-30T21:39:21.922Z,5.75
2023-11-30T21:41:54.477Z,5.74
2023-11-30T21:44:27.962Z,5.79
2023-11-30T21:47:00.060Z,5.62
2023-11-30T21:49:32.106Z,5.79
2023-11-30T21:52:04.620Z,5.81
2023-11-30T21:54:36.702Z,5.79
2023-11-30T21:57:08.732Z,5.79
2023-11-30T21:59:40.821Z,5.60
2023-11-30T22:02:13.159Z,5.60
2023-11-30T22:04:45.381Z,5.82
2023-11-30T22:07:17.678Z,5.85
2023-11-30T22:09:49.674Z,5.81
2023-11-30T22:12:21.704Z,5.62
2023-11-30T22:14:53.737Z,5.83
2023-11-30T22:17:25.733Z,5.82
2023-11-30T22:19:58.271Z,5.77
2023-11-30T22:22:30.302Z,5.62
2023-11-30T22:25:02.949Z,5.76
2023-11-30T22:27:35.055Z,5.75
2023-11-30T22:30:08.417Z,5.72
2023-11-30T22:32:40.561Z,5.68
2023-11-30T22:35:12.689Z,5.69
2023-11-30T22:37:44.889Z,5.68
2023-11-30T22:40:17.225Z,5.54
2023-11-30T22:42:49.321Z,5.48
2023-11-30T22:45:21.356Z,5.66
2023-11-30T22:47:53.645Z,5.64
2023-11-30T22:50:25.743Z,5.61
2023-11-30T22:52:57.999Z,5.59
2023-11-30T22:55:30.202Z,5.56
2023-11-30T22:58:03.099Z,5.37
2023-11-30T23:00:35.729Z,5.54
2023-11-30T23:03:08.035Z,5.55
2023-11-30T23:05:40.333Z,5.55
2023-11-30T23:08:14.523Z,5.54
2023-11-30T23:10:46.531Z,5.38
2023-11-30T23:13:18.954Z,5.55
2023-11-30T23:15:51.119Z,5.39
2023-11-30T23:18:23.941Z,5.57
2023-11-30T23:20:56.266Z,5.56
2023-11-30T23:23:28.415Z,5.53
2023-11-30T23:26:01.060Z,5.43
2023-11-30T23:28:33.087Z,5.58
2023-11-30T23:31:05.486Z,5.57
2023-11-30T23:33:37.998Z,5.57
2023-11-30T23:36:11.215Z,5.56
2023-11-30T23:38:43.448Z,5.51
2023-11-30T23:41:15.605Z,5.51
2023-11-30T23:43:47.620Z,5.52
2023-11-30T23:46:19.670Z,5.56
2023-11-30T23:48:51.789Z,5.48
2023-11-30T23:51:24.627Z,5.50
2023-11-30T23:53:56.696Z,5.45
2023-11-30T23:56:28.864Z,5.44
2023-11-30T23:59:00.969Z,5.47
